Time;durP1;ratioP1;P1;durP2;ratioP2;P2;SDS_P1;SDS_P2;PMS_P1;PMS_P2;Temp;Humidity;BMP_temperature;BMP_pressure;BME280_temperature;BME280_humidity;BME280_pressure;Samples;Min_cycle;Max_cycle;Signal;HPM_P1;HPM_P2
2023/08/12 00:01:45;;;;;;;5.85;4.00;;;;;;;21.11;65.36;95964.97;5017014;28;20213;-81
2023/08/12 00:04:14;;;;;;;4.15;3.85;;;;;;;21.13;65.74;95960.31;5017091;28;20179;-80
2023/08/12 00:06:39;;;;;;;4.20;3.80;;;;;;;21.12;65.50;95957.88;5015242;28;20280;-81
2023/08/12 00:09:05;;;;;;;4.20;3.80;;;;;;;21.09;65.49;95958.25;5017540;28;20605;-80
2023/08/12 00:11:30;;;;;;;4.70;3.90;;;;;;;21.05;65.62;95955.22;5028300;28;20206;-80
2023/08/12 00:13:55;;;;;;;3.85;3.55;;;;;;;21.07;65.20;95961.13;5017958;28;20612;-80
2023/08/12 00:16:21;;;;;;;3.75;3.45;;;;;;;21.13;65.13;95955.03;5032232;28;20294;-81
2023/08/12 00:18:46;;;;;;;3.78;3.47;;;;;;;21.13;64.54;95949.75;5016804;28;20182;-81
2023/08/12 00:21:11;;;;;;;3.75;3.45;;;;;;;21.17;64.15;95950.94;5021900;28;20221;-80
2023/08/12 00:23:40;;;;;;;4.05;3.63;;;;;;;21.15;63.92;95950.34;5015961;28;20320;-80
2023/08/12 00:26:05;;;;;;;3.70;3.40;;;;;;;21.13;64.01;95943.66;5022136;28;20230;-80
2023/08/12 00:28:31;;;;;;;4.10;3.70;;;;;;;21.13;63.83;95939.19;5028594;28;20189;-80
2023/08/12 00:30:56;;;;;;;3.88;3.47;;;;;;;21.12;63.91;95939.41;5034936;28;20186;-81
2023/08/12 00:33:21;;;;;;;4.15;3.75;;;;;;;21.18;63.49;95939.38;5018192;28;20215;-80
2023/08/12 00:35:47;;;;;;;4.75;4.35;;;;;;;21.24;62.98;95935.09;5010336;28;20183;-80
2023/08/12 00:38:12;;;;;;;3.78;3.47;;;;;;;21.30;62.84;95936.16;5019026;28;20191;-80
2023/08/12 00:40:37;;;;;;;3.58;3.22;;;;;;;21.34;62.95;95929.44;5024433;28;20258;-81
2023/08/12 00:43:03;;;;;;;3.92;3.63;;;;;;;21.46;62.44;95931.22;5026731;28;20278;-80
2023/08/12 00:45:29;;;;;;;4.10;3.70;;;;;;;21.52;62.33;95926.97;5008387;28;20245;-80
2023/08/12 00:47:55;;;;;;;4.32;3.92;;;;;;;21.56;62.08;95927.38;5007616;28;20218;-80
2023/08/12 00:50:21;;;;;;;4.10;3.75;;;;;;;21.62;62.32;95927.34;5019465;28;20529;-80
2023/08/12 00:52:46;;;;;;;6.20;4.00;;;;;;;21.69;62.00;95922.06;5019818;28;20266;-80
2023/08/12 00:55:12;;;;;;;4.50;4.10;;;;;;;21.78;61.93;95915.53;5014413;28;20573;-80
2023/08/12 00:57:37;;;;;;;3.83;3.53;;;;;;;21.87;61.57;95919.56;5030325;28;20248;-80
2023/08/12 01:00:06;;;;;;;4.20;3.90;;;;;;;22.00;61.19;95919.53;5016191;28;20652;-80
2023/08/12 01:02:31;;;;;;;5.15;4.00;;;;;;;22.09;61.23;95912.19;5026539;28;20187;-80
2023/08/12 01:04:58;;;;;;;5.13;4.00;;;;;;;22.14;61.05;95914.19;5026336;28;20759;-81
2023/08/12 01:07:23;;;;;;;4.50;4.00;;;;;;;22.21;60.66;95907.03;5050972;28;20203;-82
2023/08/12 01:09:48;;;;;;;4.80;4.00;;;;;;;22.31;60.32;95902.91;5039763;28;20635;-82
2023/08/12 01:12:21;;;;;;;4.63;3.72;;;;;;;22.35;60.57;95908.56;5031712;28;20183;-80
2023/08/12 01:15:16;;;;;;;6.25;4.10;;;;;;;22.37;60.56;95898.59;5030315;28;20227;-80
2023/08/12 01:17:43;;;;;;;4.70;4.30;;;;;;;22.30;60.90;95898.63;4956699;28;20723;-80
2023/08/12 01:20:09;;;;;;;4.82;4.35;;;;;;;22.33;60.75;95898.22;4968134;28;20278;-80
2023/08/12 01:22:39;;;;;;;4.28;3.97;;;;;;;22.37;60.60;95898.59;4981371;28;20196;-80
2023/08/12 01:25:05;;;;;;;4.85;4.38;;;;;;;22.32;60.39;95896.59;4966626;28;20200;-81
2023/08/12 01:27:30;;;;;;;5.43;3.47;;;;;;;22.46;60.28;95899.97;4962293;28;20291;-80
2023/08/12 01:29:55;;;;;;;4.35;3.90;;;;;;;22.52;59.96;95893.00;4967037;28;20244;-80
2023/08/12 01:32:31;;;;;;;4.40;4.00;;;;;;;22.55;59.52;95887.31;4959460;28;20411;-80
2023/08/12 01:35:17;;;;;;;4.68;3.67;;;;;;;22.55;59.56;95876.72;4971766;28;20199;-80
2023/08/12 01:37:43;;;;;;;3.95;3.40;;;;;;;22.53;59.55;95881.41;4975753;28;20200;-80
2023/08/12 01:40:09;;;;;;;4.22;3.83;;;;;;;22.52;59.64;95885.88;4956178;28;20192;-80
2023/08/12 01:42:35;;;;;;;4.35;3.95;;;;;;;22.53;59.44;95882.22;4956204;28;20210;-80
2023/08/12 01:45:01;;;;;;;4.30;3.90;;;;;;;22.59;59.18;95888.47;4957266;28;20198;-80
2023/08/12 01:47:27;;;;;;;4.78;3.97;;;;;;;22.55;59.64;95884.66;4977826;28;20591;-80
2023/08/12 01:49:53;;;;;;;4.30;3.90;;;;;;;22.60;59.03;95877.69;4969242;28;20247;-80
2023/08/12 01:52:18;;;;;;;5.03;3.47;;;;;;;22.63;59.02;95881.75;4957801;28;20191;-80
2023/08/12 01:54:43;;;;;;;4.50;4.10;;;;;;;22.61;59.42;95884.59;5007849;28;20234;-80
2023/08/12 01:57:09;;;;;;;5.50;4.18;;;;;;;22.69;59.08;95883.53;5024721;28;20202;-80
2023/08/12 01:59:35;;;;;;;4.63;4.07;;;;;;;22.63;59.66;95887.03;5010872;28;20250;-81
2023/08/12 02:02:01;;;;;;;7.80;4.00;;;;;;;22.64;59.61;95888.66;5022169;28;20194;-81
2023/08/12 02:04:26;;;;;;;5.40;4.28;;;;;;;22.70;59.45;95885.13;5012719;28;20583;-81
2023/08/12 02:06:52;;;;;;;5.25;3.90;;;;;;;22.75;59.28;95882.66;5023821;28;20207;-80
2023/08/12 02:09:18;;;;;;;4.80;4.30;;;;;;;22.69;59.15;95888.81;5028328;28;20183;-81
2023/08/12 02:11:43;;;;;;;5.15;4.10;;;;;;;22.70;59.34;95882.50;5029914;28;20183;-80
2023/08/12 02:14:08;;;;;;;4.25;3.80;;;;;;;22.61;59.71;95892.53;5012949;28;20209;-80
2023/08/12 02:16:33;;;;;;;3.97;3.67;;;;;;;22.59;59.68;95883.19;5024196;28;20198;-81
2023/08/12 02:18:59;;;;;;;7.05;4.05;;;;;;;22.65;59.42;95879.69;5011982;28;20195;-81
2023/08/12 02:21:24;;;;;;;6.32;3.90;;;;;;;22.70;59.24;95879.03;5022045;28;20203;-80
2023/08/12 02:23:49;;;;;;;4.95;3.88;;;;;;;22.75;59.22;95882.66;5017774;28;20286;-80
2023/08/12 02:26:15;;;;;;;5.47;3.42;;;;;;;22.75;58.89;95881.88;4997989;28;20980;-80
2023/08/12 02:28:41;;;;;;;5.05;3.97;;;;;;;22.70;59.16;95884.31;5025902;28;20194;-80
2023/08/12 02:31:06;;;;;;;4.05;3.75;;;;;;;22.67;59.05;95875.00;5013912;28;20194;-80
2023/08/12 02:33:31;;;;;;;3.97;3.55;;;;;;;22.77;58.77;95871.84;5013146;28;20242;-80
2023/08/12 02:35:56;;;;;;;5.00;4.50;;;;;;;22.80;58.39;95876.75;5024413;28;20786;-81
2023/08/12 02:38:22;;;;;;;4.45;4.05;;;;;;;22.68;58.81;95873.16;5028185;28;20190;-81
2023/08/12 02:40:49;;;;;;;8.07;6.90;;;;;;;22.62;59.00;95874.84;5011700;28;20210;-80
2023/08/12 02:43:14;;;;;;;4.10;3.80;;;;;;;22.79;58.16;95865.34;5012464;28;20194;-81
2023/08/12 02:45:39;;;;;;;4.20;3.83;;;;;;;22.66;58.56;95864.63;5025096;28;20650;-80
2023/08/12 02:48:05;;;;;;;5.88;3.63;;;;;;;22.79;57.72;95868.00;5028974;28;20225;-80
2023/08/12 02:50:30;;;;;;;5.30;3.72;;;;;;;22.78;57.72;95860.25;5015229;28;20855;-81
2023/08/12 02:52:55;;;;;;;5.30;3.53;;;;;;;22.74;58.08;95859.88;5014499;28;20210;-81
2023/08/12 02:55:21;;;;;;;4.28;3.83;;;;;;;22.70;57.60;95858.66;5013104;28;20463;-81
2023/08/12 02:57:46;;;;;;;5.20;4.18;;;;;;;22.77;57.78;95854.13;5023954;28;20591;-81
2023/08/12 03:00:12;;;;;;;3.65;3.35;;;;;;;22.73;57.67;95850.31;5014326;28;20711;-81
2023/08/12 03:02:37;;;;;;;3.45;3.15;;;;;;;22.83;57.19;95849.81;5004032;28;20688;-80
2023/08/12 03:05:03;;;;;;;4.95;3.78;;;;;;;22.79;57.38;95854.75;5020586;28;20187;-82
2023/08/12 03:07:28;;;;;;;4.25;3.40;;;;;;;22.83;56.78;95849.81;5033742;28;20252;-80
2023/08/12 03:09:53;;;;;;;3.80;3.50;;;;;;;22.80;56.82;95855.56;5019927;28;20590;-82
2023/08/12 03:12:19;;;;;;;4.57;3.80;;;;;;;22.95;56.71;95858.69;5033290;28;20286;-81
2023/08/12 03:14:44;;;;;;;5.63;4.07;;;;;;;22.79;57.59;95862.69;5017578;28;20214;-81
2023/08/12 03:17:09;;;;;;;6.53;4.07;;;;;;;22.75;58.48;95866.78;5028169;28;20253;-81
2023/08/12 03:19:35;;;;;;;6.15;3.92;;;;;;;22.44;60.26;95859.69;5027279;28;20234;-80
2023/08/12 03:22:00;;;;;;;5.07;3.90;;;;;;;22.32;61.13;95864.84;5034337;28;20183;-81
2023/08/12 03:24:25;;;;;;;4.50;3.97;;;;;;;22.29;61.30;95853.88;5019365;28;20542;-81
2023/08/12 03:26:51;;;;;;;5.03;4.25;;;;;;;22.21;61.96;95862.88;5018700;28;20214;-81
2023/08/12 03:29:16;;;;;;;4.90;4.40;;;;;;;22.12;62.86;95853.56;5037649;28;20190;-81
2023/08/12 03:31:41;;;;;;;4.28;3.88;;;;;;;22.15;62.88;95845.22;5017792;28;20690;-81
2023/08/12 03:34:07;;;;;;;4.35;3.78;;;;;;;22.13;63.39;95846.44;5019048;28;20683;-81
2023/08/12 03:36:32;;;;;;;5.03;3.95;;;;;;;22.09;63.80;95843.44;5028582;28;20198;-81
2023/08/12 03:38:57;;;;;;;5.15;3.88;;;;;;;22.06;63.81;95844.59;5025407;28;20218;-81
2023/08/12 03:41:23;;;;;;;5.78;4.32;;;;;;;22.06;63.97;95843.81;5006027;28;20194;-81
2023/08/12 03:43:48;;;;;;;4.40;4.00;;;;;;;22.07;64.30;95842.81;5020266;28;20174;-81
2023/08/12 03:46:13;;;;;;;4.50;4.10;;;;;;;22.05;64.43;95839.53;5017203;28;20657;-81
2023/08/12 03:48:39;;;;;;;5.60;4.30;;;;;;;22.08;64.64;95835.69;5016350;28;20194;-81
2023/08/12 03:51:04;;;;;;;4.28;3.88;;;;;;;22.04;64.51;95840.56;5033279;28;20187;-81
2023/08/12 03:53:29;;;;;;;4.57;4.18;;;;;;;22.04;65.02;95837.91;5021238;28;20649;-81
2023/08/12 03:55:55;;;;;;;5.20;3.90;;;;;;;22.04;64.68;95838.72;5006406;28;20206;-81
2023/08/12 03:58:20;;;;;;;3.78;3.35;;;;;;;22.06;64.41;95834.03;5009740;28;20214;-81
2023/08/12 04:00:45;;;;;;;4.68;4.15;;;;;;;22.05;64.49;95842.19;5033561;28;20194;-81
2023/08/12 04:03:11;;;;;;;4.50;4.10;;;;;;;22.06;64.66;95844.59;5019360;28;20352;-81
2023/08/12 04:05:36;;;;;;;4.45;4.05;;;;;;;22.09;64.44;95851.38;5002085;28;20199;-81
2023/08/12 04:08:01;;;;;;;5.18;4.05;;;;;;;22.04;63.95;95851.94;5002910;28;20203;-81
2023/08/12 04:10:27;;;;;;;5.57;4.38;;;;;;;22.12;63.76;95852.75;5019508;28;20306;-81
2023/08/12 04:12:52;;;;;;;4.50;4.10;;;;;;;22.09;64.07;95848.72;5023769;28;20207;-81
2023/08/12 04:15:17;;;;;;;4.70;4.07;;;;;;;22.15;63.45;95837.28;5008780;28;20179;-81
2023/08/12 04:17:43;;;;;;;4.75;3.90;;;;;;;22.16;63.51;95846.81;5011949;28;20202;-81
2023/08/12 04:20:08;;;;;;;4.47;4.07;;;;;;;22.14;64.10;95851.53;5020333;28;20186;-82
2023/08/12 04:22:34;;;;;;;5.47;4.35;;;;;;;22.12;64.10;95843.00;5036763;28;20229;-81
2023/08/12 04:24:59;;;;;;;3.90;3.60;;;;;;;22.21;63.53;95852.28;5018515;28;20554;-81
2023/08/12 04:27:25;;;;;;;4.85;4.10;;;;;;;22.26;63.41;95856.94;5032209;28;20273;-81
2023/08/12 04:29:50;;;;;;;4.25;3.85;;;;;;;22.24;63.83;95856.34;5017826;28;20193;-81
2023/08/12 04:32:15;;;;;;;4.97;3.88;;;;;;;22.25;63.66;95858.78;5019551;28;20194;-82
2023/08/12 04:34:41;;;;;;;5.18;3.97;;;;;;;22.25;65.10;95857.97;5019049;28;20221;-82
2023/08/12 04:37:06;;;;;;;6.00;4.35;;;;;;;22.27;65.62;95851.47;5019051;28;20207;-81
2023/08/12 04:39:32;;;;;;;4.32;3.97;;;;;;;22.29;65.38;95852.03;5024423;28;20187;-81
2023/08/12 04:41:58;;;;;;;4.43;4.03;;;;;;;22.17;67.78;95848.44;5020620;28;20189;-81
2023/08/12 04:44:23;;;;;;;4.90;4.50;;;;;;;22.08;69.26;95852.34;5035572;28;20210;-81
2023/08/12 04:46:48;;;;;;;4.82;4.35;;;;;;;22.15;69.65;95837.28;5035933;28;20209;-81
2023/08/12 04:49:14;;;;;;;5.10;4.60;;;;;;;22.10;70.20;95839.75;5019729;28;20533;-81
2023/08/12 04:51:39;;;;;;;4.70;4.30;;;;;;;21.90;72.64;95834.53;5031177;28;20197;-81
2023/08/12 04:54:04;;;;;;;5.28;4.78;;;;;;;21.87;73.29;95834.16;5029147;28;20206;-82
2023/08/12 04:56:30;;;;;;;4.63;4.22;;;;;;;22.08;72.23;95835.69;5026770;28;20254;-82
2023/08/12 04:58:56;;;;;;;4.25;3.85;;;;;;;22.06;73.16;95831.38;5008590;28;20190;-81
2023/08/12 05:01:21;;;;;;;5.03;4.57;;;;;;;22.10;73.28;95823.88;5033324;28;20194;-82
2023/08/12 05:03:46;;;;;;;5.10;4.60;;;;;;;22.12;73.10;95828.97;5021568;28;20182;-81
2023/08/12 05:06:12;;;;;;;5.80;4.90;;;;;;;22.08;73.38;95839.13;5034116;28;20210;-81
2023/08/12 05:08:37;;;;;;;5.13;4.63;;;;;;;22.00;73.67;95837.53;5021387;28;20213;-81
2023/08/12 05:11:03;;;;;;;6.13;4.80;;;;;;;22.12;73.86;95839.53;5032332;28;20190;-81
2023/08/12 05:13:29;;;;;;;7.07;4.45;;;;;;;22.14;74.46;95850.72;5029517;28;20203;-82
2023/08/12 05:15:54;;;;;;;7.55;4.53;;;;;;;22.19;72.79;95854.34;5016822;28;20206;-80
2023/08/12 05:18:23;;;;;;;5.40;4.90;;;;;;;22.21;72.17;95859.44;5004282;28;20201;-81
2023/08/12 05:20:48;;;;;;;5.03;4.20;;;;;;;22.25;71.13;95853.47;5017259;28;20201;-81
2023/08/12 05:23:13;;;;;;;7.53;5.45;;;;;;;22.13;72.52;95838.50;5032653;28;20214;-82
2023/08/12 05:25:39;;;;;;;5.53;5.03;;;;;;;22.15;73.99;95853.13;5034072;28;20174;-81
2023/08/12 05:28:05;;;;;;;5.20;4.70;;;;;;;22.32;73.89;95842.88;5016153;28;20183;-81
2023/08/12 05:30:30;;;;;;;6.90;5.53;;;;;;;22.25;74.78;95836.81;5026454;28;20186;-81
2023/08/12 05:32:55;;;;;;;6.90;5.15;;;;;;;22.14;74.96;95826.91;5013627;28;20218;-78
2023/08/12 05:35:21;;;;;;;6.22;4.93;;;;;;;22.15;74.96;95826.69;5002975;28;20186;-79
2023/08/12 05:37:46;;;;;;;5.65;5.15;;;;;;;22.11;75.64;95825.50;5001736;28;20313;-79
2023/08/12 05:40:11;;;;;;;6.53;4.70;;;;;;;22.10;76.06;95833.66;4999154;28;20275;-79
2023/08/12 05:42:37;;;;;;;5.85;5.10;;;;;;;22.09;76.57;95838.13;5012978;28;20274;-79
2023/08/12 05:45:03;;;;;;;6.75;4.97;;;;;;;21.93;79.43;95833.31;5012915;28;20187;-81
2023/08/12 05:47:28;;;;;;;5.20;4.72;;;;;;;22.11;77.34;95833.44;5015635;28;20225;-81
2023/08/12 05:49:53;;;;;;;5.22;4.72;;;;;;;22.05;77.44;95843.00;5025385;28;20187;-79
2023/08/12 05:52:19;;;;;;;5.72;5.22;;;;;;;22.10;77.04;95845.06;5022623;28;20191;-79
2023/08/12 05:54:44;;;;;;;6.50;5.90;;;;;;;22.14;77.84;95843.59;5021702;28;20246;-79
2023/08/12 05:57:09;;;;;;;5.97;5.38;;;;;;;22.25;77.15;95840.25;5000842;28;20206;-80
2023/08/12 05:59:35;;;;;;;5.65;5.15;;;;;;;22.33;76.59;95834.72;5025067;28;20557;-79
2023/08/12 06:02:00;;;;;;;6.65;5.53;;;;;;;22.31;77.59;95836.78;5011277;28;20191;-79
2023/08/12 06:04:25;;;;;;;6.28;5.60;;;;;;;22.40;76.84;95833.88;4996689;28;20194;-80
2023/08/12 06:06:50;;;;;;;7.13;5.80;;;;;;;22.61;76.51;95830.84;5016141;28;20708;-79
2023/08/12 06:09:16;;;;;;;6.30;4.90;;;;;;;22.68;75.61;95834.25;5018017;28;20671;-79
2023/08/12 06:11:41;;;;;;;5.85;5.30;;;;;;;22.83;76.32;95833.94;5020688;28;20186;-79
2023/08/12 06:14:07;;;;;;;7.15;5.65;;;;;;;22.98;75.66;95839.75;5023026;28;20213;-79
2023/08/12 06:16:32;;;;;;;5.75;5.13;;;;;;;23.21;74.77;95835.66;5007684;28;20257;-80
2023/08/12 06:18:57;;;;;;;5.38;4.88;;;;;;;23.28;73.22;95845.16;5026760;28;20201;-80
2023/08/12 06:21:22;;;;;;;5.90;5.32;;;;;;;23.45;73.22;95846.19;5029130;28;20848;-79
2023/08/12 06:23:48;;;;;;;6.55;5.28;;;;;;;23.52;72.64;95842.66;5029594;28;20187;-80
2023/08/12 06:26:13;;;;;;;5.88;5.20;;;;;;;23.71;71.95;95847.75;5026533;28;20206;-80
2023/08/12 06:28:38;;;;;;;8.07;5.78;;;;;;;23.67;71.13;95849.22;5026708;28;20205;-81
2023/08/12 06:31:04;;;;;;;5.93;5.32;;;;;;;23.75;69.50;95848.13;5030096;28;20186;-84
2023/08/12 06:33:29;;;;;;;5.88;5.28;;;;;;;23.96;67.25;95847.66;5011543;28;20236;-84
2023/08/12 06:35:54;;;;;;;6.28;5.65;;;;;;;24.26;66.09;95846.84;5019471;28;20210;-83
2023/08/12 06:38:20;;;;;;;6.18;5.22;;;;;;;24.15;66.01;95843.13;5000922;28;20190;-84
2023/08/12 06:40:46;;;;;;;5.47;4.70;;;;;;;24.58;64.46;95848.25;5013791;28;20190;-85
2023/08/12 06:43:11;;;;;;;6.05;5.45;;;;;;;24.49;64.20;95846.94;5004462;28;20182;-84
2023/08/12 06:45:37;;;;;;;6.45;4.75;;;;;;;24.67;62.92;95845.25;5006902;28;20682;-83
2023/08/12 06:48:02;;;;;;;5.22;4.80;;;;;;;25.82;59.27;95850.81;5023925;28;20210;-82
2023/08/12 06:50:28;;;;;;;4.88;4.38;;;;;;;27.85;51.09;95850.66;5004135;28;20186;-83
2023/08/12 06:52:53;;;;;;;6.80;4.63;;;;;;;29.83;46.23;95856.06;5001753;28;20206;-83
2023/08/12 06:55:18;;;;;;;4.35;3.95;;;;;;;31.32;41.98;95872.19;5009775;28;20191;-84
2023/08/12 06:57:44;;;;;;;4.90;4.25;;;;;;;32.04;41.21;95865.53;5021190;28;20564;-84
2023/08/12 07:00:09;;;;;;;6.28;4.60;;;;;;;31.87;40.72;95869.66;5009434;28;20183;-84
2023/08/12 07:02:35;;;;;;;4.70;4.30;;;;;;;32.57;38.40;95870.41;5032548;28;20214;-84
2023/08/12 07:05:01;;;;;;;5.97;4.03;;;;;;;32.08;38.77;95871.19;5011215;28;20198;-84
2023/08/12 07:07:26;;;;;;;6.13;3.80;;;;;;;31.49;39.55;95859.28;5010202;28;20210;-84
2023/08/12 07:09:52;;;;;;;4.32;3.92;;;;;;;31.00;39.11;95859.03;5011762;28;20182;-85
2023/08/12 07:12:17;;;;;;;5.32;3.72;;;;;;;30.24;40.49;95859.75;5004618;28;20187;-84
2023/08/12 07:14:42;;;;;;;5.60;4.05;;;;;;;29.75;41.76;95861.94;5022886;28;20211;-84
2023/08/12 07:17:07;;;;;;;5.88;4.15;;;;;;;30.35;40.13;95866.72;5023116;28;20215;-84
2023/08/12 07:19:33;;;;;;;5.20;4.13;;;;;;;30.16;41.51;95858.38;5009807;28;20206;-84
2023/08/12 07:21:58;;;;;;;4.28;3.80;;;;;;;31.10;39.85;95855.53;4994827;28;20190;-84
2023/08/12 07:24:23;;;;;;;4.30;3.90;;;;;;;31.12;38.81;95854.22;5004869;28;20221;-85
2023/08/12 07:26:49;;;;;;;5.40;3.78;;;;;;;31.29;38.58;95849.38;5010369;28;20210;-84
2023/08/12 07:29:14;;;;;;;5.75;3.58;;;;;;;31.34;39.33;95855.81;5010963;28;20179;-84
2023/08/12 07:31:39;;;;;;;4.45;4.05;;;;;;;30.93;38.53;95853.97;5001111;28;20191;-84
2023/08/12 07:34:05;;;;;;;4.13;3.70;;;;;;;31.51;37.04;95850.94;5011679;28;20309;-84
2023/08/12 07:36:31;;;;;;;8.75;4.07;;;;;;;30.14;40.58;95847.13;5021799;28;20203;-84
2023/08/12 07:38:56;;;;;;;7.72;4.10;;;;;;;30.23;40.15;95844.75;5029162;28;20198;-84
2023/08/12 07:41:22;;;;;;;5.07;3.90;;;;;;;29.91;41.21;95850.22;5012042;28;20179;-84
2023/08/12 07:43:47;;;;;;;5.20;4.30;;;;;;;29.31;44.32;95848.81;5011732;28;20175;-84
2023/08/12 07:46:12;;;;;;;4.35;3.95;;;;;;;29.11;45.58;95856.72;5022381;28;20206;-84
2023/08/12 07:48:38;;;;;;;4.97;4.57;;;;;;;28.61;46.81;95853.34;5020424;28;20178;-83
2023/08/12 07:51:03;;;;;;;4.32;3.95;;;;;;;28.64;46.81;95846.72;5007812;28;20668;-84
2023/08/12 07:53:28;;;;;;;4.43;4.00;;;;;;;29.10;45.80;95844.41;5026783;28;21031;-84
2023/08/12 07:55:54;;;;;;;4.97;4.57;;;;;;;28.62;47.44;95856.81;5018728;28;20269;-82
2023/08/12 07:58:19;;;;;;;4.80;4.40;;;;;;;28.84;46.46;95849.53;5026978;28;20618;-82
2023/08/12 08:00:44;;;;;;;4.88;4.47;;;;;;;28.50;46.14;95857.00;5031694;28;20186;-80
2023/08/12 08:03:10;;;;;;;5.50;4.55;;;;;;;28.01;47.54;95845.50;5032756;28;20623;-81
2023/08/12 08:05:35;;;;;;;4.63;4.13;;;;;;;28.36;46.71;95850.44;5015763;28;20211;-81
2023/08/12 08:08:00;;;;;;;5.30;4.80;;;;;;;28.25;48.42;95849.50;5023616;28;20652;-80
2023/08/12 08:10:26;;;;;;;5.70;4.38;;;;;;;28.37;46.89;95852.06;5021233;28;20682;-80
2023/08/12 08:12:51;;;;;;;5.72;4.35;;;;;;;28.04;47.66;95842.34;5019124;28;20183;-80
2023/08/12 08:15:16;;;;;;;4.85;4.45;;;;;;;28.22;48.12;95845.47;5013568;28;20245;-81
2023/08/12 08:17:42;;;;;;;5.57;5.03;;;;;;;28.18;49.74;95846.22;5014458;28;20253;-81
2023/08/12 08:20:07;;;;;;;5.47;5.03;;;;;;;28.01;49.39;95840.19;5027401;28;20200;-81
2023/08/12 08:22:33;;;;;;;5.20;4.47;;;;;;;28.00;49.66;95838.53;5030242;28;20183;-81
2023/08/12 08:24:58;;;;;;;4.63;4.22;;;;;;;27.68;50.13;95831.25;5025963;28;20190;-80
2023/08/12 08:27:24;;;;;;;5.80;4.45;;;;;;;27.86;50.57;95830.94;5022915;28;20210;-81
2023/08/12 08:29:49;;;;;;;4.82;4.43;;;;;;;27.73;50.33;95847.28;5020901;28;20611;-80
2023/08/12 08:32:16;;;;;;;4.68;4.20;;;;;;;27.42;51.23;95843.41;5023364;28;20277;-82
2023/08/12 08:34:41;;;;;;;5.00;4.60;;;;;;;27.54;50.48;95833.44;5018500;28;20219;-83
2023/08/12 08:37:07;;;;;;;4.82;4.43;;;;;;;27.52;51.30;95834.75;5014883;28;20203;-82
2023/08/12 08:39:32;;;;;;;5.35;4.78;;;;;;;27.58;50.80;95837.22;5015205;28;20183;-86
2023/08/12 08:41:58;;;;;;;5.80;5.00;;;;;;;28.07;51.03;95833.81;5025078;28;20186;-86
2023/08/12 08:44:28;;;;;;;4.85;4.45;;;;;;;28.50;49.55;95847.09;5024580;28;20174;-85
2023/08/12 08:46:55;;;;;;;5.30;4.57;;;;;;;28.48;49.83;95846.56;5012320;28;20221;-85
2023/08/12 08:49:21;;;;;;;4.97;4.47;;;;;;;28.73;49.04;95855.88;5006010;28;20191;-85
2023/08/12 08:51:47;;;;;;;5.63;4.43;;;;;;;29.10;48.70;95852.44;5014993;28;20698;-86
2023/08/12 08:54:16;;;;;;;4.90;4.50;;;;;;;29.11;48.38;95854.03;5015123;28;20215;-86
2023/08/12 08:56:41;;;;;;;5.88;4.60;;;;;;;29.19;47.77;95854.38;5016599;28;20202;-85
2023/08/12 08:59:07;;;;;;;6.68;4.78;;;;;;;29.35;48.01;95847.25;5012269;28;20183;-86
2023/08/12 09:01:33;;;;;;;5.40;4.90;;;;;;;28.79;48.29;95852.97;5030551;28;20190;-85
2023/08/12 09:03:59;;;;;;;5.05;4.65;;;;;;;28.84;48.56;95849.53;5021430;28;20553;-86
2023/08/12 09:06:25;;;;;;;5.35;4.85;;;;;;;28.45;49.50;95846.28;5022172;28;20230;-83
2023/08/12 09:08:54;;;;;;;5.20;4.72;;;;;;;28.60;49.02;95850.94;5033976;28;20179;-83
2023/08/12 09:11:19;;;;;;;5.05;4.47;;;;;;;29.07;48.36;95856.44;5030056;28;20191;-83
2023/08/12 09:13:45;;;;;;;6.25;4.30;;;;;;;28.82;48.71;95854.34;5014702;28;20199;-83
2023/08/12 09:16:11;;;;;;;5.00;4.32;;;;;;;28.75;49.18;95864.44;4998928;28;20203;-83
2023/08/12 09:18:42;;;;;;;4.82;4.35;;;;;;;28.49;50.30;95866.06;5000996;28;20218;-83
2023/08/12 09:21:08;;;;;;;5.32;4.82;;;;;;;28.47;50.08;95865.50;5003295;28;20178;-84
2023/08/12 09:23:35;;;;;;;6.47;4.43;;;;;;;28.94;48.49;95852.31;5026519;28;20190;-84
2023/08/12 09:26:01;;;;;;;5.93;4.32;;;;;;;29.18;48.03;95849.28;5032022;28;20679;-83
2023/08/12 09:28:26;;;;;;;4.80;4.28;;;;;;;29.14;48.83;95840.16;5028099;28;20194;-84
2023/08/12 09:30:54;;;;;;;7.75;4.63;;;;;;;28.97;49.22;95829.59;5016526;28;20798;-83
2023/08/12 09:33:26;;;;;;;5.25;4.78;;;;;;;28.60;51.92;95813.53;5012697;28;20199;-84
2023/08/12 09:35:52;;;;;;;7.03;5.18;;;;;;;28.57;51.13;95820.19;5014665;28;20187;-83
2023/08/12 09:38:17;;;;;;;4.82;4.32;;;;;;;28.89;50.75;95830.03;5029182;28;20219;-83
2023/08/12 09:40:44;;;;;;;5.47;4.85;;;;;;;28.80;51.12;95840.41;5022642;28;20190;-83
2023/08/12 09:43:11;;;;;;;5.88;5.22;;;;;;;29.33;49.43;95852.88;5006794;28;20183;-83
2023/08/12 09:45:36;;;;;;;5.53;5.00;;;;;;;29.60;48.66;95850.09;5022879;28;20274;-83
2023/08/12 09:48:02;;;;;;;5.40;5.00;;;;;;;29.85;46.94;95854.75;5018667;28;20214;-83
2023/08/12 09:50:28;;;;;;;12.63;5.95;;;;;;;29.47;47.99;95847.03;5012091;28;20627;-83
2023/08/12 09:52:54;;;;;;;18.65;6.18;;;;;;;29.39;48.16;95843.00;5012654;28;20606;-83
2023/08/12 09:55:22;;;;;;;5.55;4.90;;;;;;;29.46;48.53;95840.09;5012978;28;20375;-82
2023/08/12 09:57:49;;;;;;;6.35;5.32;;;;;;;29.05;49.61;95837.16;5013318;28;20210;-82
2023/08/12 10:00:19;;;;;;;5.88;5.00;;;;;;;29.17;50.29;95835.13;5024083;28;20200;-84
2023/08/12 10:02:53;;;;;;;5.68;4.93;;;;;;;29.29;50.80;95830.38;5020028;28;20699;-82
2023/08/12 10:05:22;;;;;;;5.50;5.00;;;;;;;28.66;51.58;95821.34;5007496;28;20237;-84
2023/08/12 10:07:48;;;;;;;5.43;4.90;;;;;;;28.77;49.63;95812.34;5024670;28;20214;-81
2023/08/12 10:10:14;;;;;;;4.80;4.40;;;;;;;29.25;49.57;95810.56;5015912;28;20207;-82
2023/08/12 10:12:39;;;;;;;8.65;4.97;;;;;;;29.31;49.55;95806.03;5022968;28;20571;-82
2023/08/12 10:15:06;;;;;;;7.88;5.40;;;;;;;29.20;48.65;95805.16;5030037;28;20210;-81
2023/08/12 10:17:33;;;;;;;6.85;4.90;;;;;;;29.12;50.95;95802.19;5011427;28;20289;-79
2023/08/12 10:20:02;;;;;;;5.90;5.40;;;;;;;29.54;48.51;95796.81;5019909;28;20187;-78
2023/08/12 10:22:29;;;;;;;5.70;5.20;;;;;;;29.39;51.00;95805.53;5019709;28;20182;-77
2023/08/12 10:24:54;;;;;;;5.43;4.82;;;;;;;29.65;47.73;95809.16;5019836;28;20183;-77
2023/08/12 10:27:20;;;;;;;5.07;4.57;;;;;;;29.63;47.21;95807.81;5015315;28;20773;-78
2023/08/12 10:29:49;;;;;;;5.38;4.88;;;;;;;29.90;47.06;95811.13;5013477;28;20189;-78
2023/08/12 10:32:14;;;;;;;5.65;5.20;;;;;;;29.80;47.13;95817.25;5012755;28;20191;-80
2023/08/12 10:34:39;;;;;;;5.43;4.93;;;;;;;30.44;47.52;95824.94;5013642;28;20203;-80
2023/08/12 10:37:06;;;;;;;5.10;4.63;;;;;;;30.60;44.46;95823.09;5016062;28;20651;-81
2023/08/12 10:39:32;;;;;;;5.38;4.70;;;;;;;30.47;43.96;95826.28;5019683;28;20245;-83
2023/08/12 10:41:58;;;;;;;5.13;4.63;;;;;;;31.17;43.29;95829.25;5003573;28;20822;-81
2023/08/12 10:44:47;;;;;;;8.98;4.53;;;;;;;31.47;43.31;95828.41;5024335;28;20620;-81
2023/08/12 10:47:13;;;;;;;6.72;4.50;;;;;;;31.52;43.21;95826.50;5018894;28;20221;-81
2023/08/12 10:49:42;;;;;;;6.25;4.32;;;;;;;31.63;41.59;95838.03;5011921;28;20186;-81
2023/08/12 10:52:25;;;;;;;5.07;4.57;;;;;;;31.60;41.89;95840.44;5027073;28;20234;-81
2023/08/12 10:54:52;;;;;;;4.97;4.57;;;;;;;30.93;43.72;95831.72;5027166;28;20731;-81
2023/08/12 10:57:17;;;;;;;5.15;4.75;;;;;;;30.59;44.28;95829.53;5024451;28;20213;-81
2023/08/12 10:59:46;;;;;;;7.30;5.22;;;;;;;30.53;44.66;95838.63;5023897;28;20543;-82
2023/08/12 11:02:21;;;;;;;5.63;5.03;;;;;;;30.06;46.00;95836.09;5020976;28;20277;-81
2023/08/12 11:04:54;;;;;;;5.40;4.90;;;;;;;29.94;47.17;95832.81;5034191;28;20279;-80
2023/08/12 11:07:22;;;;;;;5.40;4.90;;;;;;;29.61;48.25;95837.53;5022715;28;20207;-83
2023/08/12 11:09:52;;;;;;;5.88;4.90;;;;;;;29.53;47.98;95840.69;5027961;28;20183;-84
2023/08/12 11:12:18;;;;;;;6.32;4.85;;;;;;;29.21;49.28;95851.44;5013473;28;20205;-77
2023/08/12 11:15:08;;;;;;;7.75;4.63;;;;;;;28.66;51.38;95852.59;5012174;28;20232;-77
2023/08/12 11:17:38;;;;;;;5.72;5.18;;;;;;;28.77;54.98;95857.75;5019826;28;20225;-76
2023/08/12 11:20:09;;;;;;;6.18;5.07;;;;;;;28.63;56.83;95845.09;5022632;28;20664;-77
2023/08/12 11:22:44;;;;;;;8.07;5.68;;;;;;;28.99;55.03;95839.00;5019605;28;20641;-77
2023/08/12 11:25:12;;;;;;;5.85;5.20;;;;;;;28.98;54.77;95820.56;5016331;28;20174;-76
2023/08/12 11:27:41;;;;;;;9.07;5.25;;;;;;;29.35;53.49;95817.84;5015547;28;20342;-77
2023/08/12 11:30:07;;;;;;;6.80;5.35;;;;;;;29.24;53.08;95803.59;5018147;28;20182;-78